createdAt,value
2017-12-22T00:00:06.264Z,98346.24
2017-12-22T00:01:46.572Z,98340.56
2017-12-22T00:03:23.485Z,98345.34
2017-12-22T00:05:00.403Z,98358.91
2017-12-22T00:06:39.219Z,98395.23
2017-12-22T00:08:16.994Z,98418.94
2017-12-22T00:09:54.069Z,98426.32
2017-12-22T00:11:32.991Z,98445.64
2017-12-22T00:13:10.445Z,98475.50
2017-12-22T00:14:51.195Z,98540.73
2017-12-22T00:16:30.696Z,98558.64
2017-12-22T00:18:09.410Z,98600.80
2017-12-22T00:19:46.508Z,98549.05
2017-12-22T00:21:23.596Z,98510.06
2017-12-22T00:23:00.912Z,98446.91
2017-12-22T00:24:45.217Z,98400.13
2017-12-22T00:26:22.352Z,98365.52
2017-12-22T00:28:01.209Z,98320.45
2017-12-22T00:29:38.805Z,98259.52
2017-12-22T00:31:16.109Z,98200.91
2017-12-22T00:32:52.956Z,98166.34
2017-12-22T00:34:31.087Z,98106.97
2017-12-22T00:36:08.069Z,98050.52
2017-12-22T00:37:45.992Z,98011.68
2017-12-22T00:39:24.277Z,97960.64
2017-12-22T00:41:02.467Z,97914.80
2017-12-22T00:42:40.520Z,97883.34
2017-12-22T00:44:18.120Z,97865.95
2017-12-22T00:46:04.494Z,97847.95
2017-12-22T00:47:46.979Z,97875.52
2017-12-22T00:49:29.047Z,97878.03
2017-12-22T00:51:13.530Z,97903.82
2017-12-22T00:52:51.136Z,97933.92
2017-12-22T00:54:28.976Z,97906.48
2017-12-22T00:56:06.039Z,97934.81
2017-12-22T00:57:45.035Z,97961.47
2017-12-22T00:59:23.296Z,97985.91
2017-12-22T01:01:00.578Z,98038.78
2017-12-22T01:02:38.532Z,98104.31
2017-12-22T01:04:18.109Z,98165.48
2017-12-22T01:05:55.061Z,98209.28
2017-12-22T01:07:36.414Z,98241.23
2017-12-22T01:09:13.333Z,98271.42
2017-12-22T01:10:50.836Z,98300.75
2017-12-22T01:12:28.131Z,98281.48
2017-12-22T01:14:05.528Z,98244.71
2017-12-22T01:15:46.694Z,98244.28
2017-12-22T01:19:31.080Z,98238.56
2017-12-22T01:21:08.098Z,98258.73
2017-12-22T01:22:45.411Z,98244.28
2017-12-22T01:24:22.944Z,98231.63
2017-12-22T01:25:59.979Z,98213.12
2017-12-22T01:27:36.734Z,98217.64
2017-12-22T01:29:22.107Z,98225.91
2017-12-22T01:30:59.683Z,98262.61
2017-12-22T01:32:36.786Z,98286.30
2017-12-22T01:34:13.610Z,98295.07
2017-12-22T01:35:50.358Z,98349.77
2017-12-22T01:37:27.680Z,98368.61
2017-12-22T01:39:05.119Z,98358.50
2017-12-22T01:40:42.004Z,98344.05
2017-12-22T01:42:20.178Z,98395.73
2017-12-22T01:43:57.018Z,98403.11
2017-12-22T01:45:37.533Z,98414.09
2017-12-22T01:47:15.560Z,98428.65
2017-12-22T01:48:53.082Z,98425.55
2017-12-22T01:50:30.660Z,98475.50
2017-12-22T01:52:07.793Z,98510.52
2017-12-22T01:53:45.754Z,98505.70
2017-12-22T01:55:23.658Z,98463.27
2017-12-22T01:57:00.492Z,98397.46
2017-12-22T01:58:37.676Z,98365.98
2017-12-22T02:00:22.967Z,98350.70
2017-12-22T02:02:00.590Z,98372.53
2017-12-22T02:03:37.389Z,98411.09
2017-12-22T02:05:14.510Z,98472.94
2017-12-22T02:06:51.116Z,98461.47
2017-12-22T02:08:28.389Z,98434.77
2017-12-22T02:10:05.180Z,98440.91
2017-12-22T02:11:42.177Z,98413.75
2017-12-22T02:13:19.035Z,98384.39
2017-12-22T02:14:56.751Z,98359.47
2017-12-22T02:16:34.614Z,98340.56
2017-12-22T02:18:14.008Z,98326.64
2017-12-22T02:19:52.206Z,98329.30
2017-12-22T02:21:28.997Z,98355.52
2017-12-22T02:23:14.191Z,98408.97
2017-12-22T02:24:51.466Z,98421.70
2017-12-22T02:26:28.902Z,98426.48
2017-12-22T02:28:10.747Z,98401.45
2017-12-22T02:29:47.665Z,98386.98
2017-12-22T02:31:24.755Z,98401.16
2017-12-22T02:33:01.528Z,98434.44
2017-12-22T02:34:39.362Z,98430.44
2017-12-22T02:36:16.279Z,98451.02
2017-12-22T02:37:53.386Z,98466.82
2017-12-22T02:39:31.254Z,98493.56
2017-12-22T02:41:08.768Z,98502.77
2017-12-22T02:42:45.782Z,98507.93
2017-12-22T02:44:23.340Z,98517.21
2017-12-22T02:46:00.065Z,98532.05
2017-12-22T02:47:36.766Z,98537.34
2017-12-22T02:49:15.859Z,98551.38
2017-12-22T02:50:54.394Z,98565.82
2017-12-22T02:52:31.955Z,98569.78
2017-12-22T02:54:08.730Z,98571.55
2017-12-22T02:55:45.451Z,98564.92
2017-12-22T02:57:22.699Z,98566.75
2017-12-22T02:58:59.586Z,98547.92
2017-12-22T03:00:36.479Z,98519.88
2017-12-22T03:02:13.233Z,98531.72
2017-12-22T03:03:51.184Z,98538.27
2017-12-22T03:05:29.051Z,98558.00
2017-12-22T03:07:06.097Z,98545.29
2017-12-22T03:08:44.397Z,98522.47
2017-12-22T03:10:22.176Z,98535.14
2017-12-22T03:11:58.990Z,98531.25
2017-12-22T03:13:35.758Z,98545.29
2017-12-22T03:15:12.669Z,98572.04
2017-12-22T03:16:53.745Z,98626.42
2017-12-22T03:18:30.638Z,98703.17
2017-12-22T03:20:07.301Z,98858.09
2017-12-22T03:21:46.981Z,99044.84
2017-12-22T03:23:26.017Z,99184.19
2017-12-22T03:25:03.329Z,99264.75
2017-12-22T03:26:40.501Z,99314.45
2017-12-22T03:28:17.294Z,99377.52
2017-12-22T03:29:54.464Z,99365.98
2017-12-22T03:31:31.394Z,99413.69
2017-12-22T03:33:08.310Z,99425.56
2017-12-22T03:34:45.420Z,99466.50
2017-12-22T03:36:22.509Z,99473.09
2017-12-22T03:37:59.196Z,99454.16
2017-12-22T03:39:36.014Z,99415.43
2017-12-22T03:41:12.990Z,99290.84
2017-12-22T03:42:51.205Z,99247.61
2017-12-22T03:44:28.304Z,99266.15
2017-12-22T03:46:05.516Z,99373.12
2017-12-22T03:47:42.205Z,99485.95
2017-12-22T03:49:23.471Z,99518.08
2017-12-22T03:51:00.380Z,99547.17
2017-12-22T03:52:37.040Z,99554.69
2017-12-22T03:54:13.710Z,99555.59
2017-12-22T03:55:50.402Z,99554.72
2017-12-22T03:57:27.833Z,99566.20
2017-12-22T03:59:05.460Z,99576.36
2017-12-22T04:00:42.192Z,99545.86
2017-12-22T04:02:19.861Z,99500.08
2017-12-22T04:03:56.486Z,99481.58
2017-12-22T04:05:33.234Z,99531.82
2017-12-22T04:07:09.839Z,99597.17
2017-12-22T04:08:49.005Z,99627.56
2017-12-22T04:10:25.859Z,99610.75
2017-12-22T04:12:09.552Z,99623.12
2017-12-22T04:13:46.290Z,99616.55
2017-12-22T04:15:26.617Z,99621.41
2017-12-22T04:17:03.287Z,99571.57
2017-12-22T04:18:40.061Z,99552.56
2017-12-22T04:20:16.838Z,99584.79
2017-12-22T04:21:54.305Z,99533.66
2017-12-22T04:23:31.072Z,99327.45
2017-12-22T04:25:07.830Z,99144.83
2017-12-22T04:26:45.245Z,98986.58
2017-12-22T04:28:22.297Z,98924.16
2017-12-22T04:30:00.054Z,99060.91
2017-12-22T04:31:37.169Z,99193.64
2017-12-22T04:33:14.677Z,99314.68
2017-12-22T04:34:51.814Z,99417.34
2017-12-22T04:36:29.470Z,99461.36
2017-12-22T04:38:06.155Z,99483.80
2017-12-22T04:39:42.833Z,99520.44
2017-12-22T04:41:20.539Z,99479.83
2017-12-22T04:42:57.392Z,99411.12
2017-12-22T04:44:34.210Z,99291.36
2017-12-22T04:46:11.839Z,99100.02
2017-12-22T04:47:49.069Z,98995.79
2017-12-22T04:49:26.416Z,98867.52
2017-12-22T04:51:03.099Z,98759.95
2017-12-22T04:52:39.805Z,98686.21
2017-12-22T04:54:17.675Z,98649.35
2017-12-22T04:55:54.298Z,98708.62
2017-12-22T04:57:30.899Z,98735.39
2017-12-22T04:59:07.532Z,98751.98
2017-12-22T05:00:44.720Z,98799.52
2017-12-22T05:02:24.167Z,98849.11
2017-12-22T05:04:01.082Z,98856.08
2017-12-22T05:05:38.001Z,98820.12
2017-12-22T05:07:15.118Z,98863.14
2017-12-22T05:08:51.825Z,98893.81
2017-12-22T05:10:29.244Z,98747.69
2017-12-22T05:12:05.903Z,98613.44
2017-12-22T05:13:43.066Z,98540.63
2017-12-22T05:15:24.488Z,98542.92
2017-12-22T05:17:01.292Z,98544.13
2017-12-22T05:18:37.943Z,98519.63
2017-12-22T05:20:15.016Z,98493.75
2017-12-22T05:21:51.682Z,98535.41
2017-12-22T05:23:28.307Z,98534.91
2017-12-22T05:25:05.027Z,98519.60
2017-12-22T05:26:42.923Z,98467.05
2017-12-22T05:28:19.945Z,98399.63
2017-12-22T05:29:56.913Z,98376.35
2017-12-22T05:31:34.527Z,98324.25
2017-12-22T05:33:12.008Z,98255.58
2017-12-22T05:34:49.702Z,98227.12
2017-12-22T05:36:27.301Z,98207.92
2017-12-22T05:38:05.254Z,98203.08
2017-12-22T05:39:42.550Z,98173.73
2017-12-22T05:41:21.377Z,98182.95
2017-12-22T05:42:58.442Z,98177.74
2017-12-22T05:44:35.412Z,98186.44
2017-12-22T05:46:12.692Z,98238.11
2017-12-22T05:47:50.560Z,98263.48
2017-12-22T05:49:27.494Z,98301.48
2017-12-22T05:51:04.392Z,98279.56
2017-12-22T05:52:41.593Z,98261.69
2017-12-22T05:54:19.434Z,98298.39
2017-12-22T05:55:56.201Z,98363.63
2017-12-22T05:57:33.704Z,98449.45
2017-12-22T05:59:10.858Z,98556.83
2017-12-22T06:00:47.895Z,98664.27
2017-12-22T06:02:24.632Z,98708.09
2017-12-22T06:04:01.766Z,98829.72
2017-12-22T06:05:38.985Z,98866.55
2017-12-22T06:07:18.912Z,98972.01
2017-12-22T06:08:55.788Z,99161.06
2017-12-22T06:10:33.403Z,99201.13
2017-12-22T06:12:10.044Z,99062.19
2017-12-22T06:13:46.919Z,98971.14
2017-12-22T06:15:30.777Z,98895.15
2017-12-22T06:17:07.501Z,98878.91
2017-12-22T06:18:44.828Z,99030.55
2017-12-22T06:20:21.684Z,99186.59
2017-12-22T06:22:01.060Z,99282.57
2017-12-22T06:23:37.770Z,99364.36
2017-12-22T06:25:14.843Z,99386.02
2017-12-22T06:26:52.512Z,99425.23
2017-12-22T06:28:29.476Z,99425.70
2017-12-22T06:30:06.263Z,99464.91
2017-12-22T06:31:44.141Z,99556.14
2017-12-22T06:33:21.182Z,99594.94
2017-12-22T06:35:15.583Z,99598.02
2017-12-22T06:36:54.018Z,99598.53
2017-12-22T06:38:31.814Z,99510.32
2017-12-22T06:40:17.476Z,99399.34
2017-12-22T06:41:54.708Z,99148.36
2017-12-22T06:43:32.353Z,98940.95
2017-12-22T06:45:09.221Z,98771.41
2017-12-22T06:46:46.091Z,98685.38
2017-12-22T06:48:24.349Z,98688.50
2017-12-22T06:50:01.228Z,98794.31
2017-12-22T06:51:38.160Z,98832.01
2017-12-22T06:53:16.462Z,98872.00
2017-12-22T06:54:53.787Z,98949.37
2017-12-22T06:56:30.628Z,98958.92
2017-12-22T06:58:07.645Z,98974.83
2017-12-22T06:59:44.962Z,99008.59
2017-12-22T07:01:22.231Z,99135.70
2017-12-22T07:03:00.101Z,99252.20
2017-12-22T07:04:37.026Z,99391.80
2017-12-22T07:06:14.061Z,99458.30
2017-12-22T07:07:50.857Z,99470.68
2017-12-22T07:09:27.907Z,99409.97
2017-12-22T07:11:04.696Z,99329.69
2017-12-22T07:12:42.230Z,99343.38
2017-12-22T07:14:20.842Z,99407.76
2017-12-22T07:15:57.589Z,99514.77
2017-12-22T07:17:34.279Z,99561.48
2017-12-22T07:19:11.435Z,99587.98
2017-12-22T07:20:48.156Z,99573.86
2017-12-22T07:22:27.082Z,99526.19
2017-12-22T07:24:03.832Z,99534.14
2017-12-22T07:25:41.745Z,99552.68
2017-12-22T07:27:19.247Z,99552.71
2017-12-22T07:28:56.000Z,99524.88
2017-12-22T07:30:33.771Z,99487.88
2017-12-22T07:32:10.902Z,99294.05
2017-12-22T07:33:47.728Z,99129.55
2017-12-22T07:35:25.105Z,99161.20
2017-12-22T07:37:02.604Z,99287.91
2017-12-22T07:38:40.767Z,99305.11
2017-12-22T07:40:17.455Z,99140.17
2017-12-22T07:41:54.374Z,98977.94
2017-12-22T07:43:31.464Z,98877.30
2017-12-22T07:45:09.229Z,98724.06
2017-12-22T07:46:46.690Z,98602.15
2017-12-22T07:48:23.356Z,98499.61
2017-12-22T07:50:00.052Z,98447.03
2017-12-22T07:51:37.922Z,98399.72
2017-12-22T07:53:14.705Z,98377.34
2017-12-22T07:54:51.464Z,98451.84
2017-12-22T07:56:28.210Z,98502.67
2017-12-22T07:58:05.335Z,98459.70
2017-12-22T07:59:41.994Z,98472.47
2017-12-22T08:01:18.704Z,98560.05
2017-12-22T08:02:55.998Z,98578.42
2017-12-22T08:04:33.885Z,98492.95
2017-12-22T08:06:11.604Z,98388.78
2017-12-22T08:07:48.182Z,98343.62
2017-12-22T08:09:25.673Z,98291.45
2017-12-22T08:11:03.620Z,98335.41
2017-12-22T08:12:40.602Z,98453.58
2017-12-22T08:14:17.299Z,98552.59
2017-12-22T08:15:54.045Z,98626.68
2017-12-22T08:17:31.204Z,98760.01
2017-12-22T08:19:07.969Z,98935.68
2017-12-22T08:20:44.643Z,99056.94
2017-12-22T08:22:21.341Z,99136.52
2017-12-22T08:23:58.748Z,99189.23
2017-12-22T08:25:35.625Z,99012.56
2017-12-22T08:27:12.322Z,98927.31
2017-12-22T08:28:49.768Z,98982.27
2017-12-22T08:30:29.009Z,99124.69
2017-12-22T08:32:10.584Z,99122.86
2017-12-22T08:33:47.248Z,98988.81
2017-12-22T08:35:24.781Z,98885.17
2017-12-22T08:37:02.031Z,98835.14
2017-12-22T08:38:38.739Z,98835.57
2017-12-22T08:40:16.156Z,98812.74
2017-12-22T08:41:52.858Z,98786.45
2017-12-22T08:43:29.885Z,98839.50
2017-12-22T08:45:07.484Z,98855.77
2017-12-22T08:46:45.021Z,98877.27
2017-12-22T08:48:22.695Z,98883.41
2017-12-22T08:50:00.281Z,98996.75
2017-12-22T08:51:37.732Z,99074.19
2017-12-22T08:53:14.440Z,99173.47
2017-12-22T08:54:51.110Z,99304.64
2017-12-22T08:56:28.231Z,99398.87
2017-12-22T08:58:04.885Z,99457.06
2017-12-22T08:59:41.500Z,99469.81
2017-12-22T09:01:18.747Z,99469.81
2017-12-22T09:02:55.880Z,99475.13
2017-12-22T09:04:33.364Z,99516.08
2017-12-22T09:06:10.857Z,99555.77
2017-12-22T09:07:48.612Z,99563.25
2017-12-22T09:09:25.788Z,99533.24
2017-12-22T09:11:02.570Z,99506.87
2017-12-22T09:12:39.382Z,99536.41
2017-12-22T09:14:16.828Z,99569.91
2017-12-22T09:15:54.063Z,99568.59
2017-12-22T09:17:32.522Z,99624.62
2017-12-22T09:19:09.166Z,99625.91
2017-12-22T09:20:45.876Z,99615.73
2017-12-22T09:22:23.000Z,99628.13
2017-12-22T09:24:00.700Z,99547.39
2017-12-22T09:25:37.497Z,99414.70
2017-12-22T09:27:14.283Z,99341.67
2017-12-22T09:28:52.312Z,99315.27
2017-12-22T09:30:33.072Z,99343.88
2017-12-22T09:32:09.741Z,99334.64
2017-12-22T09:33:50.297Z,99354.81
2017-12-22T09:35:27.502Z,99325.36
2017-12-22T09:37:05.740Z,99335.52
2017-12-22T09:38:42.614Z,99359.66
2017-12-22T09:40:19.444Z,99389.21
2017-12-22T09:41:56.490Z,99375.59
2017-12-22T09:43:33.205Z,99368.92
2017-12-22T09:45:13.374Z,99356.93
2017-12-22T09:46:51.847Z,99346.02
2017-12-22T09:48:29.059Z,99274.77
2017-12-22T09:50:05.766Z,99173.50
2017-12-22T09:51:42.631Z,99092.17
2017-12-22T09:53:19.451Z,99020.09
2017-12-22T09:54:56.528Z,98947.55
2017-12-22T09:56:34.369Z,98897.47
2017-12-22T09:58:14.141Z,98787.28
2017-12-22T09:59:50.806Z,98763.56
2017-12-22T10:01:27.924Z,98659.07
2017-12-22T10:03:05.623Z,98613.50
2017-12-22T10:04:42.560Z,98624.05
2017-12-22T10:06:19.501Z,98656.54
2017-12-22T10:07:57.468Z,98652.61
2017-12-22T10:09:40.315Z,98663.50
2017-12-22T10:11:17.636Z,98685.41
2017-12-22T10:12:56.421Z,98727.13
2017-12-22T10:14:34.009Z,98777.16
2017-12-22T10:16:12.028Z,98845.23
2017-12-22T10:17:48.664Z,98881.63
2017-12-22T10:19:25.329Z,98925.17
2017-12-22T10:21:03.268Z,98965.16
2017-12-22T10:22:41.581Z,99013.92
2017-12-22T10:24:19.357Z,99043.79
2017-12-22T10:25:56.148Z,99112.38
2017-12-22T10:27:34.046Z,99158.98
2017-12-22T10:29:10.837Z,99182.26
2017-12-22T10:30:47.544Z,99206.09
2017-12-22T10:34:07.835Z,99211.77
2017-12-22T10:35:44.449Z,99180.58
2017-12-22T10:37:21.369Z,99152.05
2017-12-22T10:38:58.111Z,99096.52
2017-12-22T10:40:35.268Z,99083.39
2017-12-22T10:42:12.017Z,99103.19
2017-12-22T10:43:49.909Z,99069.78
2017-12-22T10:45:28.268Z,99095.71
2017-12-22T10:47:05.616Z,99120.40
2017-12-22T10:48:43.178Z,99120.38
2017-12-22T10:50:25.085Z,99095.73
2017-12-22T10:52:02.598Z,99078.55
2017-12-22T10:53:40.530Z,99058.33
2017-12-22T10:55:17.256Z,99006.48
2017-12-22T10:56:54.742Z,98988.41
2017-12-22T10:58:32.479Z,98967.30
2017-12-22T11:00:12.197Z,98966.92
2017-12-22T11:01:48.886Z,98948.02
2017-12-22T11:03:25.645Z,98960.29
2017-12-22T11:05:03.142Z,98971.73
2017-12-22T11:06:41.964Z,98996.81
2017-12-22T11:08:18.744Z,99050.02
2017-12-22T11:09:55.691Z,99087.73
2017-12-22T11:11:32.584Z,99082.95
2017-12-22T11:13:09.825Z,99101.02
2017-12-22T11:14:47.366Z,99077.28
2017-12-22T11:16:24.410Z,99094.00
2017-12-22T11:18:01.096Z,99044.75
2017-12-22T11:19:38.264Z,98916.41
2017-12-22T11:21:15.153Z,98878.53
2017-12-22T11:22:52.643Z,98904.50
2017-12-22T11:24:31.466Z,98909.34
2017-12-22T11:26:09.016Z,98921.67
2017-12-22T11:27:45.619Z,98937.88
2017-12-22T11:29:23.221Z,98983.63
2017-12-22T11:31:00.122Z,98977.52
2017-12-22T11:32:38.338Z,98985.83
2017-12-22T11:34:15.810Z,98989.77
2017-12-22T11:37:33.662Z,99047.38
2017-12-22T11:39:14.812Z,99068.04
2017-12-22T11:40:52.492Z,99013.52
2017-12-22T11:42:29.392Z,99004.78
2017-12-22T11:44:06.315Z,99020.56
2017-12-22T11:45:44.016Z,99054.36
2017-12-22T11:47:21.821Z,99106.78
2017-12-22T11:48:59.878Z,99101.94
2017-12-22T11:50:38.290Z,99086.95
2017-12-22T11:52:16.213Z,99101.48
2017-12-22T11:53:53.373Z,99113.27
2017-12-22T11:55:30.563Z,99119.91
2017-12-22T11:57:07.428Z,99137.96
2017-12-22T11:58:48.682Z,99149.39
2017-12-22T12:00:30.940Z,99167.01
2017-12-22T12:02:07.680Z,99152.42
2017-12-22T12:03:44.516Z,99148.95
2017-12-22T12:05:21.417Z,99165.19
2017-12-22T12:06:58.295Z,99187.22
2017-12-22T12:08:35.215Z,99115.50
2017-12-22T12:10:13.021Z,99087.86
2017-12-22T12:11:50.054Z,98989.40
2017-12-22T12:13:27.591Z,98850.13
2017-12-22T12:15:04.792Z,98798.31
2017-12-22T12:16:46.507Z,98815.94
2017-12-22T12:18:25.518Z,98792.61
2017-12-22T12:20:02.930Z,98742.95
2017-12-22T12:21:39.789Z,98724.03
2017-12-22T12:23:21.469Z,98757.91
2017-12-22T12:24:58.272Z,98724.97
2017-12-22T12:26:35.716Z,98751.37
2017-12-22T12:28:14.013Z,98807.51
2017-12-22T12:29:51.469Z,98864.13
2017-12-22T12:31:29.782Z,98863.70
2017-12-22T12:33:06.688Z,98916.84
2017-12-22T12:34:43.583Z,98956.79
2017-12-22T12:36:21.226Z,98992.06
2017-12-22T12:37:58.006Z,99001.24
2017-12-22T12:39:35.814Z,98936.61
2017-12-22T12:41:12.665Z,98916.41
2017-12-22T12:42:49.839Z,98925.23
2017-12-22T12:44:34.033Z,98949.84
2017-12-22T12:46:11.978Z,98946.75
2017-12-22T12:47:49.549Z,98968.72
2017-12-22T12:49:30.465Z,99003.88
2017-12-22T12:51:08.116Z,99018.83
2017-12-22T12:52:44.931Z,99056.22
2017-12-22T12:54:21.805Z,99074.64
2017-12-22T12:55:59.966Z,99079.95
2017-12-22T12:57:39.812Z,99060.59
2017-12-22T12:59:16.659Z,99076.47
2017-12-22T13:00:53.592Z,99091.39
2017-12-22T13:02:31.962Z,99067.63
2017-12-22T13:04:09.512Z,98971.42
2017-12-22T13:05:46.186Z,98872.50
2017-12-22T13:07:27.548Z,98879.50
2017-12-22T13:09:04.858Z,98899.80
2017-12-22T13:10:41.616Z,98866.83
2017-12-22T13:12:18.308Z,98845.33
2017-12-22T13:13:55.028Z,98831.70
2017-12-22T13:15:32.317Z,98811.97
2017-12-22T13:17:09.767Z,98801.44
2017-12-22T13:18:48.504Z,98749.58
2017-12-22T13:20:25.188Z,98668.05
2017-12-22T13:22:02.178Z,98564.11
2017-12-22T13:23:39.905Z,98539.98
2017-12-22T13:25:16.635Z,98594.39
2017-12-22T13:26:53.377Z,98643.48
2017-12-22T13:28:33.248Z,98661.06
2017-12-22T13:30:10.316Z,98651.31
2017-12-22T13:31:47.119Z,98674.55
2017-12-22T13:33:24.780Z,98729.02
2017-12-22T13:35:02.958Z,98777.72
2017-12-22T13:36:39.683Z,98802.31
2017-12-22T13:38:16.447Z,98838.73
2017-12-22T13:39:53.174Z,98867.76
2017-12-22T13:41:34.403Z,98935.43
2017-12-22T13:43:11.115Z,99012.31
2017-12-22T13:44:49.301Z,99061.49
2017-12-22T13:46:26.891Z,99090.52
2017-12-22T13:48:11.414Z,99133.19
2017-12-22T13:49:49.451Z,99154.22
2017-12-22T13:51:27.439Z,99123.87
2017-12-22T13:53:06.561Z,99103.30
2017-12-22T13:54:43.916Z,99069.00
2017-12-22T13:56:21.971Z,99060.22
2017-12-22T13:57:59.711Z,99073.44
2017-12-22T13:59:37.489Z,99058.92
2017-12-22T14:01:15.532Z,99035.16
2017-12-22T14:02:52.812Z,98978.89
2017-12-22T14:04:30.509Z,98932.80
2017-12-22T14:06:08.242Z,98907.30
2017-12-22T14:07:45.756Z,98865.16
2017-12-22T14:09:23.367Z,98815.59
2017-12-22T14:11:44.066Z,98852.42
2017-12-22T14:13:23.562Z,98954.40
2017-12-22T14:15:01.132Z,99066.02
2017-12-22T14:16:39.131Z,99104.73
2017-12-22T14:18:16.341Z,99183.45
2017-12-22T14:19:53.958Z,99142.89
2017-12-22T14:21:34.317Z,99208.94
2017-12-22T14:23:11.177Z,99285.04
2017-12-22T14:24:49.550Z,99310.59
2017-12-22T14:26:27.663Z,99380.59
2017-12-22T14:28:04.590Z,99395.12
2017-12-22T14:29:42.133Z,99390.30
2017-12-22T14:31:18.980Z,99423.34
2017-12-22T14:33:02.382Z,99499.22
2017-12-22T14:34:39.324Z,99590.96
2017-12-22T14:36:17.380Z,99631.91
2017-12-22T14:37:57.348Z,99582.95
2017-12-22T14:39:35.322Z,99594.07
2017-12-22T14:41:15.485Z,99597.94
2017-12-22T14:42:52.259Z,99515.92
2017-12-22T14:44:29.492Z,99540.70
2017-12-22T14:46:07.590Z,99638.62
2017-12-22T14:47:44.500Z,99744.43
2017-12-22T14:49:21.965Z,99868.55
2017-12-22T14:50:59.743Z,99850.42
2017-12-22T14:52:37.670Z,99828.77
2017-12-22T14:54:25.012Z,99847.36
2017-12-22T14:56:03.538Z,99862.75
2017-12-22T14:57:42.290Z,99837.20
2017-12-22T14:59:19.262Z,99890.20
2017-12-22T15:00:56.347Z,99987.48
2017-12-22T15:02:34.150Z,100085.60
2017-12-22T15:04:12.633Z,100098.45
2017-12-22T15:05:57.813Z,100043.14
2017-12-22T15:07:37.467Z,99958.28
2017-12-22T15:09:18.592Z,99889.70
2017-12-22T15:10:58.021Z,99838.52
2017-12-22T15:12:36.190Z,99803.59
2017-12-22T15:14:14.809Z,99815.94
2017-12-22T15:15:52.695Z,99803.16
2017-12-22T15:17:35.318Z,99797.89
2017-12-22T15:19:14.033Z,99811.13
2017-12-22T15:20:51.129Z,99812.50
2017-12-22T15:22:30.049Z,99801.44
2017-12-22T15:24:24.884Z,99793.91
2017-12-22T15:26:04.695Z,99755.54
2017-12-22T15:27:42.648Z,99772.27
2017-12-22T15:29:25.125Z,99816.02
2017-12-22T15:31:09.364Z,99793.91
2017-12-22T15:32:49.920Z,99727.73
2017-12-22T15:34:29.216Z,99761.30
2017-12-22T15:36:07.226Z,99744.98
2017-12-22T15:37:45.193Z,99710.08
2017-12-22T15:39:22.375Z,99693.31
2017-12-22T15:40:59.362Z,99714.94
2017-12-22T15:42:36.780Z,99809.39
2017-12-22T15:44:13.863Z,99863.28
2017-12-22T15:45:50.873Z,99959.22
2017-12-22T15:47:27.978Z,99982.17
2017-12-22T15:49:05.634Z,99958.77
2017-12-22T15:50:44.004Z,99935.33
2017-12-22T15:52:22.137Z,99850.85
2017-12-22T15:53:59.074Z,99814.69
2017-12-22T15:55:37.249Z,99774.48
2017-12-22T15:57:14.693Z,99708.28
2017-12-22T15:58:53.792Z,99626.19
2017-12-22T16:00:33.431Z,99632.41
2017-12-22T16:02:11.584Z,99617.88
2017-12-22T16:03:48.871Z,99576.41
2017-12-22T16:05:25.858Z,99642.58
2017-12-22T16:07:03.425Z,99763.89
2017-12-22T16:08:41.008Z,99774.91
2017-12-22T16:10:18.625Z,99749.73
2017-12-22T16:11:57.686Z,99741.00
2017-12-22T16:13:35.739Z,99706.05
2017-12-22T16:15:17.089Z,99710.06
2017-12-22T16:16:54.458Z,99695.92
2017-12-22T16:18:31.616Z,99667.61
2017-12-22T16:20:09.365Z,99603.69
2017-12-22T16:23:33.710Z,99624.91
2017-12-22T16:25:10.850Z,99541.08
2017-12-22T16:26:47.948Z,99356.44
2017-12-22T16:28:25.938Z,99231.90
2017-12-22T16:30:04.502Z,99175.06
2017-12-22T16:31:42.846Z,99130.66
2017-12-22T16:33:19.988Z,99083.66
2017-12-22T16:34:57.622Z,99056.37
2017-12-22T16:36:35.209Z,99071.78
2017-12-22T16:38:12.258Z,99119.25
2017-12-22T16:39:54.586Z,99158.00
2017-12-22T16:41:38.719Z,99126.23
2017-12-22T16:43:18.216Z,99030.41
2017-12-22T16:44:56.244Z,98982.55
2017-12-22T16:46:36.060Z,98928.89
2017-12-22T16:48:13.517Z,98938.59
2017-12-22T16:49:58.607Z,98944.33
2017-12-22T16:51:36.638Z,98909.96
2017-12-22T16:53:14.275Z,98881.88
2017-12-22T16:54:51.156Z,98884.08
2017-12-22T16:56:28.305Z,98902.05
2017-12-22T16:58:05.067Z,98937.66
2017-12-22T16:59:43.361Z,98997.86
2017-12-22T17:01:21.069Z,99001.39
2017-12-22T17:02:58.146Z,99000.44
2017-12-22T17:04:34.996Z,99024.19
2017-12-22T17:06:13.040Z,99040.06
2017-12-22T17:07:49.884Z,99070.80
2017-12-22T17:09:27.409Z,99086.98
2017-12-22T17:11:04.551Z,99120.02
2017-12-22T17:12:42.485Z,99160.08
2017-12-22T17:14:19.998Z,99173.22
2017-12-22T17:15:57.033Z,99168.84
2017-12-22T17:17:36.369Z,99164.95
2017-12-22T17:19:14.210Z,99162.66
2017-12-22T17:20:51.317Z,99202.73
2017-12-22T17:24:11.665Z,99292.92
2017-12-22T17:25:48.714Z,99327.30
2017-12-22T17:27:25.695Z,99336.50
2017-12-22T17:29:02.801Z,99332.16
2017-12-22T17:30:39.623Z,99342.25
2017-12-22T17:32:16.948Z,99361.63
2017-12-22T17:33:53.672Z,99373.56
2017-12-22T17:35:30.632Z,99388.51
2017-12-22T17:37:07.491Z,99419.40
2017-12-22T17:38:45.609Z,99422.02
2017-12-22T17:40:22.456Z,99418.50
2017-12-22T17:42:00.584Z,99421.14
2017-12-22T17:43:38.246Z,99434.38
2017-12-22T17:45:17.389Z,99453.31
2017-12-22T17:46:54.487Z,99482.84
2017-12-22T17:48:33.845Z,99508.38
2017-12-22T17:50:10.885Z,99523.80
2017-12-22T17:51:48.099Z,99501.78
2017-12-22T17:53:24.934Z,99517.64
2017-12-22T17:55:01.823Z,99548.11
2017-12-22T17:56:39.318Z,99587.77
2017-12-22T17:58:16.149Z,99611.13
2017-12-22T17:59:55.965Z,99642.87
2017-12-22T18:01:32.896Z,99660.95
2017-12-22T18:03:10.147Z,99668.92
2017-12-22T18:05:18.382Z,99658.74
2017-12-22T18:06:57.921Z,99624.39
2017-12-22T18:08:35.942Z,99594.80
2017-12-22T18:10:12.993Z,99583.30
2017-12-22T18:11:49.836Z,99589.52
2017-12-22T18:13:27.177Z,99565.28
2017-12-22T18:15:05.293Z,99526.81
2017-12-22T18:16:43.965Z,99479.79
2017-12-22T18:18:31.435Z,99418.06
2017-12-22T18:20:08.119Z,99350.61
2017-12-22T18:21:46.402Z,99327.33
2017-12-22T18:23:23.504Z,99310.16
2017-12-22T18:25:01.103Z,99312.39
2017-12-22T18:26:36.048Z,99316.69
2017-12-22T18:28:13.443Z,99330.37
2017-12-22T18:29:50.273Z,99343.61
2017-12-22T18:31:27.120Z,99330.41
2017-12-22T18:33:04.441Z,99327.30
2017-12-22T18:34:41.988Z,99346.66
2017-12-22T18:36:18.800Z,99368.71
2017-12-22T18:37:56.615Z,99387.63
2017-12-22T18:39:33.948Z,99400.41
2017-12-22T18:41:11.302Z,99405.72
2017-12-22T18:42:48.469Z,99385.92
2017-12-22T18:44:25.947Z,99339.17
2017-12-22T18:46:03.726Z,99337.40
2017-12-22T18:47:40.898Z,99318.05
2017-12-22T18:49:18.108Z,99305.31
2017-12-22T18:50:54.834Z,99280.59
2017-12-22T18:52:32.152Z,99284.17
2017-12-22T18:54:09.264Z,99280.19
2017-12-22T18:55:46.242Z,99263.02
2017-12-22T18:57:23.209Z,99255.10
2017-12-22T18:59:00.438Z,99254.23
2017-12-22T19:00:39.533Z,99275.38
2017-12-22T19:02:16.430Z,99308.83
2017-12-22T19:03:54.267Z,99325.07
2017-12-22T19:05:34.493Z,99365.61
2017-12-22T19:07:16.036Z,99397.30
2017-12-22T19:08:52.815Z,99447.09
2017-12-22T19:10:32.395Z,99476.20
2017-12-22T19:12:09.537Z,99498.20
2017-12-22T19:13:46.793Z,99520.69
2017-12-22T19:15:25.662Z,99529.05
2017-12-22T19:17:03.336Z,99521.67
2017-12-22T19:18:40.064Z,99555.14